createdAt,value
2018-08-22T00:00:32.078Z,45.56
2018-08-22T00:02:56.004Z,45.04
2018-08-22T00:05:19.900Z,45.30
2018-08-22T00:07:43.742Z,46.07
2018-08-22T00:10:07.763Z,45.64
2018-08-22T00:12:31.741Z,45.05
2018-08-22T00:14:55.598Z,46.00
2018-08-22T00:17:19.577Z,45.90
2018-08-22T00:19:43.437Z,46.08
2018-08-22T00:22:07.384Z,46.05
2018-08-22T00:24:31.247Z,46.74
2018-08-22T00:26:55.135Z,46.01
2018-08-22T00:29:19.093Z,46.66
2018-08-22T00:31:42.966Z,46.53
2018-08-22T00:34:06.891Z,46.92
2018-08-22T00:36:30.765Z,47.09
2018-08-22T00:38:54.615Z,46.48
2018-08-22T00:41:18.490Z,46.85
2018-08-22T00:43:42.357Z,47.10
2018-08-22T00:46:06.235Z,47.44
2018-08-22T00:48:30.305Z,47.64
2018-08-22T00:50:54.382Z,48.43
2018-08-22T00:53:18.266Z,47.99
2018-08-22T00:55:42.122Z,48.02
2018-08-22T00:58:05.985Z,48.35
2018-08-22T01:00:29.861Z,49.00
2018-08-22T01:02:53.749Z,48.90
2018-08-22T01:05:17.640Z,48.64
2018-08-22T01:07:41.703Z,47.93
2018-08-22T01:10:06.138Z,48.28
2018-08-22T01:12:30.003Z,48.34
2018-08-22T01:14:53.866Z,49.47
2018-08-22T01:17:17.780Z,48.70
2018-08-22T01:19:41.654Z,48.71
2018-08-22T01:22:05.594Z,48.95
2018-08-22T01:24:29.520Z,48.31
2018-08-22T01:26:53.425Z,48.65
2018-08-22T01:29:17.316Z,48.85
2018-08-22T01:31:41.175Z,49.28
2018-08-22T01:34:05.058Z,48.96
2018-08-22T01:36:28.909Z,49.39
2018-08-22T01:38:52.827Z,49.16
2018-08-22T01:41:16.655Z,49.50
2018-08-22T01:43:40.509Z,49.62
2018-08-22T01:46:04.384Z,49.03
2018-08-22T01:48:28.223Z,50.16
2018-08-22T01:50:52.070Z,49.01
2018-08-22T01:53:16.041Z,49.04
2018-08-22T01:55:39.848Z,49.21
2018-08-22T01:58:04.065Z,49.61
2018-08-22T02:00:27.929Z,49.10
2018-08-22T02:02:51.770Z,48.67
2018-08-22T02:05:15.662Z,49.06
2018-08-22T02:07:39.493Z,49.01
2018-08-22T02:10:03.549Z,48.33
2018-08-22T02:12:27.403Z,49.03
2018-08-22T02:14:51.298Z,49.36
2018-08-22T02:17:15.132Z,48.48
2018-08-22T02:19:38.983Z,48.84
2018-08-22T02:22:02.834Z,48.73
2018-08-22T02:24:26.705Z,48.34
2018-08-22T02:26:50.595Z,49.16
2018-08-22T02:29:14.459Z,49.40
2018-08-22T02:31:38.346Z,48.80
2018-08-22T02:34:02.318Z,49.46
2018-08-22T02:36:26.153Z,49.95
2018-08-22T02:38:50.058Z,50.61
2018-08-22T02:41:13.946Z,51.73
2018-08-22T02:43:37.798Z,51.35
2018-08-22T02:46:01.692Z,51.39
2018-08-22T02:48:25.545Z,50.10
2018-08-22T02:50:49.603Z,50.96
2018-08-22T02:53:13.456Z,51.69
2018-08-22T02:55:37.479Z,51.17
2018-08-22T02:58:01.421Z,51.51
2018-08-22T03:00:25.318Z,51.61
2018-08-22T03:02:49.245Z,51.10
2018-08-22T03:05:13.086Z,52.17
2018-08-22T03:07:36.903Z,51.66
2018-08-22T03:10:00.771Z,51.50
2018-08-22T03:12:24.653Z,51.72
2018-08-22T03:14:48.624Z,52.13
2018-08-22T03:17:12.478Z,52.17
2018-08-22T03:19:36.331Z,52.55
2018-08-22T03:22:00.298Z,53.53
2018-08-22T03:24:24.171Z,52.93
2018-08-22T03:26:48.039Z,53.44
2018-08-22T03:29:11.927Z,53.96
2018-08-22T03:31:35.806Z,53.60
2018-08-22T03:33:59.681Z,53.08
2018-08-22T03:36:23.526Z,54.42
2018-08-22T03:38:47.369Z,54.70
2018-08-22T03:41:11.227Z,54.63
2018-08-22T03:43:35.064Z,54.57
2018-08-22T03:45:58.925Z,54.15
2018-08-22T03:48:22.775Z,53.56
2018-08-22T03:50:46.655Z,54.41
2018-08-22T03:53:10.558Z,54.36
2018-08-22T03:55:34.416Z,53.94
2018-08-22T03:57:58.308Z,54.77
2018-08-22T04:00:22.155Z,54.16
2018-08-22T04:02:46.018Z,54.83
2018-08-22T04:05:09.907Z,54.20
2018-08-22T04:07:33.761Z,54.41
2018-08-22T04:09:57.649Z,53.81
2018-08-22T04:12:21.544Z,54.35
2018-08-22T04:14:45.417Z,54.01
2018-08-22T04:17:09.282Z,54.50
2018-08-22T04:19:33.141Z,54.54
2018-08-22T04:21:57.036Z,55.39
2018-08-22T04:24:20.917Z,54.95
2018-08-22T04:26:44.789Z,54.86
2018-08-22T04:29:08.676Z,54.39
2018-08-22T04:31:32.558Z,54.13
2018-08-22T04:33:56.428Z,54.60
2018-08-22T04:36:20.351Z,54.49
2018-08-22T04:38:44.216Z,54.09
2018-08-22T04:41:08.117Z,54.42
2018-08-22T04:43:31.980Z,54.23
2018-08-22T04:45:55.870Z,54.21
2018-08-22T04:48:19.795Z,53.89
2018-08-22T04:50:43.650Z,54.39
2018-08-22T04:53:07.814Z,54.49
2018-08-22T04:55:31.939Z,54.01
2018-08-22T04:57:55.826Z,54.68
2018-08-22T05:00:19.729Z,54.56
2018-08-22T05:02:43.596Z,54.04
2018-08-22T05:05:07.832Z,54.31
2018-08-22T05:07:31.718Z,54.49
2018-08-22T05:09:55.570Z,54.03
2018-08-22T05:12:19.405Z,54.05
2018-08-22T05:14:43.784Z,54.04
2018-08-22T05:17:07.671Z,53.40
2018-08-22T05:19:31.593Z,53.63
2018-08-22T05:21:55.596Z,53.45
2018-08-22T05:24:19.514Z,53.05
2018-08-22T05:26:43.433Z,53.00
2018-08-22T05:29:07.298Z,52.83
2018-08-22T05:31:31.175Z,52.62
2018-08-22T05:33:55.035Z,52.34
2018-08-22T05:36:18.890Z,51.57
2018-08-22T05:38:42.819Z,52.15
2018-08-22T05:41:06.904Z,52.26
2018-08-22T05:43:30.811Z,52.29
2018-08-22T05:45:54.676Z,51.23
2018-08-22T05:48:18.530Z,50.69
2018-08-22T05:50:42.398Z,50.95
2018-08-22T05:53:06.266Z,51.25
2018-08-22T05:55:30.450Z,50.18
2018-08-22T05:57:54.327Z,50.42
2018-08-22T06:00:18.222Z,50.35
2018-08-22T06:02:42.136Z,50.10
2018-08-22T06:05:06.003Z,50.29
2018-08-22T06:07:29.900Z,50.15
2018-08-22T06:09:53.769Z,50.44
2018-08-22T06:12:17.618Z,50.26
2018-08-22T06:14:41.653Z,49.67
2018-08-22T06:17:05.712Z,50.09
2018-08-22T06:19:29.588Z,50.15
2018-08-22T06:21:53.475Z,49.63
2018-08-22T06:24:17.354Z,49.68
2018-08-22T06:26:41.314Z,49.33
2018-08-22T06:29:05.127Z,49.22
2018-08-22T06:31:29.053Z,48.87
2018-08-22T06:33:52.880Z,49.21
2018-08-22T06:36:16.794Z,49.49
2018-08-22T06:38:40.621Z,49.42
2018-08-22T06:41:04.482Z,49.03
2018-08-22T06:43:28.343Z,48.85
2018-08-22T06:45:52.256Z,49.22
2018-08-22T06:48:16.081Z,48.88
2018-08-22T06:50:40.036Z,49.35
2018-08-22T06:53:03.914Z,48.59
2018-08-22T06:55:27.760Z,48.65
2018-08-22T06:57:51.632Z,49.50
2018-08-22T07:00:15.511Z,49.11
2018-08-22T07:02:39.427Z,48.66
2018-08-22T07:05:03.320Z,48.79
2018-08-22T07:07:27.217Z,48.75
2018-08-22T07:09:51.124Z,48.61
2018-08-22T07:12:15.005Z,49.17
2018-08-22T07:14:38.923Z,48.15
2018-08-22T07:17:02.775Z,47.53
2018-08-22T07:19:26.638Z,47.83
2018-08-22T07:21:50.633Z,47.70
2018-08-22T07:24:14.703Z,47.42
2018-08-22T07:26:38.569Z,46.94
2018-08-22T07:29:02.470Z,47.47
2018-08-22T07:31:26.332Z,46.75
2018-08-22T07:33:50.268Z,46.58
2018-08-22T07:36:14.159Z,47.43
2018-08-22T07:38:38.042Z,46.99
2018-08-22T07:41:01.933Z,46.42
2018-08-22T07:43:25.790Z,47.00
2018-08-22T07:45:49.707Z,46.58
2018-08-22T07:48:13.594Z,46.85
2018-08-22T07:50:37.446Z,46.13
2018-08-22T07:53:05.272Z,45.90
2018-08-22T07:55:29.163Z,45.72
2018-08-22T07:57:53.113Z,45.26
2018-08-22T08:00:17.095Z,44.92
2018-08-22T08:02:40.860Z,45.14
2018-08-22T08:05:04.961Z,44.77
2018-08-22T08:07:28.825Z,44.56
2018-08-22T08:09:52.724Z,45.13
2018-08-22T08:12:16.656Z,44.81
2018-08-22T08:14:40.639Z,44.02
2018-08-22T08:17:04.792Z,43.50
2018-08-22T08:19:28.600Z,43.66
2018-08-22T08:21:52.494Z,43.63
2018-08-22T08:24:16.479Z,42.87
2018-08-22T08:26:40.346Z,42.72
2018-08-22T08:29:04.374Z,43.76
2018-08-22T08:31:28.357Z,43.43
2018-08-22T08:33:52.311Z,43.19
2018-08-22T08:36:16.339Z,42.86
2018-08-22T08:38:40.252Z,42.73
2018-08-22T08:41:04.210Z,42.07
2018-08-22T08:43:28.089Z,42.55
2018-08-22T08:45:51.931Z,42.48
2018-08-22T08:48:15.834Z,42.00
2018-08-22T08:50:39.935Z,42.17
2018-08-22T08:53:03.800Z,41.47
2018-08-22T08:55:27.704Z,40.69
2018-08-22T08:57:51.656Z,41.34
2018-08-22T09:00:15.537Z,40.90
2018-08-22T09:02:39.459Z,41.30
2018-08-22T09:05:03.388Z,40.39
2018-08-22T09:07:27.247Z,41.37
2018-08-22T09:09:51.168Z,40.26
2018-08-22T09:12:15.101Z,40.02
2018-08-22T09:14:39.276Z,40.84
2018-08-22T09:17:03.157Z,40.35
2018-08-22T09:19:27.243Z,40.06
2018-08-22T09:21:51.165Z,40.80
2018-08-22T09:24:15.197Z,40.49
2018-08-22T09:26:39.168Z,39.67
2018-08-22T09:29:03.324Z,39.36
2018-08-22T09:31:27.218Z,38.62
2018-08-22T09:33:51.122Z,37.92
2018-08-22T09:36:14.987Z,38.66
2018-08-22T09:38:38.855Z,38.03
2018-08-22T09:41:02.750Z,38.06
2018-08-22T09:43:26.599Z,37.36
2018-08-22T09:45:50.560Z,37.03
2018-08-22T09:48:14.539Z,37.27
2018-08-22T09:50:38.436Z,37.02
2018-08-22T09:53:02.318Z,35.99
2018-08-22T09:55:26.198Z,36.47
2018-08-22T09:57:50.160Z,37.09
2018-08-22T10:00:19.513Z,35.95
2018-08-22T10:02:43.403Z,35.71
2018-08-22T10:05:07.542Z,35.75
2018-08-22T10:07:31.503Z,36.13
2018-08-22T10:09:55.378Z,36.33
2018-08-22T10:12:19.405Z,35.84
2018-08-22T10:14:43.333Z,35.52
2018-08-22T10:17:07.245Z,35.20
2018-08-22T10:19:31.167Z,34.84
2018-08-22T10:21:55.096Z,34.52
2018-08-22T10:24:19.000Z,33.80
2018-08-22T10:26:42.923Z,34.49
2018-08-22T10:29:06.755Z,34.34
2018-08-22T10:31:30.644Z,33.97
2018-08-22T10:33:54.776Z,33.53
2018-08-22T10:36:18.723Z,33.66
2018-08-22T10:38:42.611Z,32.72
2018-08-22T10:41:06.821Z,32.64
2018-08-22T10:43:30.869Z,33.53
2018-08-22T10:45:54.773Z,33.38
2018-08-22T10:48:18.706Z,32.60
2018-08-22T10:50:42.710Z,33.05
2018-08-22T10:53:06.870Z,32.04
2018-08-22T10:55:30.802Z,32.75
2018-08-22T10:57:54.727Z,31.67
2018-08-22T11:00:18.804Z,31.71
2018-08-22T11:02:42.680Z,31.24
2018-08-22T11:05:06.533Z,31.59
2018-08-22T11:07:30.462Z,32.22
2018-08-22T11:09:54.324Z,31.88
2018-08-22T11:12:18.164Z,31.23
2018-08-22T11:14:42.099Z,31.16
2018-08-22T11:17:06.035Z,31.43
2018-08-22T11:19:29.935Z,31.31
2018-08-22T11:22:05.217Z,31.33
2018-08-22T11:24:40.293Z,30.08
2018-08-22T11:27:15.622Z,30.77
2018-08-22T11:29:50.858Z,30.21
2018-08-22T11:32:26.015Z,31.03
2018-08-22T11:34:50.459Z,31.00
2018-08-22T11:37:15.510Z,30.21
2018-08-22T11:39:39.447Z,30.62
2018-08-22T11:42:03.890Z,29.98
2018-08-22T11:44:27.775Z,30.34
2018-08-22T11:46:51.731Z,30.91
2018-08-22T11:49:15.557Z,29.18
2018-08-22T11:51:39.409Z,29.50
2018-08-22T11:54:03.264Z,29.22
2018-08-22T11:56:27.222Z,30.04
2018-08-22T11:58:51.184Z,29.10
2018-08-22T12:01:15.171Z,29.27
2018-08-22T12:03:39.048Z,29.13
2018-08-22T12:06:03.348Z,29.78
2018-08-22T12:08:27.633Z,28.57
2018-08-22T12:10:51.558Z,30.13
2018-08-22T12:13:15.473Z,28.58
2018-08-22T12:15:39.496Z,30.13
2018-08-22T12:18:03.364Z,31.06
2018-08-22T12:20:27.537Z,30.28
2018-08-22T12:22:51.413Z,29.25
2018-08-22T12:25:15.312Z,28.86
2018-08-22T12:27:39.217Z,28.92
2018-08-22T12:30:03.148Z,29.49
2018-08-22T12:32:27.080Z,28.99
2018-08-22T12:34:50.975Z,28.06
2018-08-22T12:37:15.138Z,27.95
2018-08-22T12:39:39.014Z,27.73
2018-08-22T12:42:02.902Z,27.94
2018-08-22T12:44:26.791Z,28.85
2018-08-22T12:46:50.708Z,28.28
2018-08-22T12:49:14.591Z,28.23
2018-08-22T12:51:38.478Z,27.56
2018-08-22T12:54:02.374Z,27.24
2018-08-22T12:56:26.258Z,28.79
2018-08-22T12:58:50.138Z,26.84
2018-08-22T13:01:14.141Z,27.41
2018-08-22T13:03:38.115Z,26.86
2018-08-22T13:06:02.033Z,27.94
2018-08-22T13:08:25.889Z,28.59
2018-08-22T13:10:49.834Z,27.18
2018-08-22T13:13:13.742Z,26.50
2018-08-22T13:15:37.617Z,27.30
2018-08-22T13:18:01.624Z,28.33
2018-08-22T13:20:25.541Z,27.50
2018-08-22T13:22:49.504Z,26.63
2018-08-22T13:25:13.461Z,27.89
2018-08-22T13:27:37.369Z,26.93
2018-08-22T13:30:01.365Z,25.99
2018-08-22T13:32:25.358Z,26.06
2018-08-22T13:34:49.491Z,26.92
2018-08-22T13:37:13.384Z,26.00
2018-08-22T13:39:37.273Z,25.84
2018-08-22T13:42:01.215Z,25.66
2018-08-22T13:44:25.109Z,26.72
2018-08-22T13:46:49.019Z,26.04
2018-08-22T13:49:12.958Z,26.23
2018-08-22T13:51:36.884Z,26.72
2018-08-22T13:54:00.911Z,26.49
2018-08-22T13:56:24.839Z,27.36
2018-08-22T13:58:48.764Z,26.18
2018-08-22T14:01:12.657Z,26.83
2018-08-22T14:03:36.547Z,26.52
2018-08-22T14:06:00.431Z,26.98
2018-08-22T14:08:24.348Z,28.24
2018-08-22T14:10:48.416Z,27.21
2018-08-22T14:13:12.447Z,26.70
2018-08-22T14:15:36.410Z,27.16
2018-08-22T14:18:01.249Z,26.58
2018-08-22T14:20:25.523Z,26.18
2018-08-22T14:22:49.459Z,26.11
2018-08-22T14:25:13.330Z,26.67
2018-08-22T14:27:37.250Z,26.25
2018-08-22T14:30:01.190Z,25.72
2018-08-22T14:32:25.124Z,25.90
2018-08-22T14:34:49.065Z,25.88
2018-08-22T14:37:12.937Z,26.38
2018-08-22T14:39:36.772Z,26.63
2018-08-22T14:42:00.684Z,26.10
2018-08-22T14:44:24.685Z,25.51
2018-08-22T14:46:48.665Z,25.67
2018-08-22T14:49:12.563Z,25.36
2018-08-22T14:51:36.462Z,27.28
2018-08-22T14:54:00.442Z,26.55
2018-08-22T14:56:24.509Z,27.89
2018-08-22T14:58:48.661Z,27.21
2018-08-22T15:01:12.708Z,27.79
2018-08-22T15:03:36.835Z,27.09
2018-08-22T15:06:00.588Z,26.08
2018-08-22T15:08:24.521Z,27.14
2018-08-22T15:10:48.753Z,27.37
2018-08-22T15:13:12.689Z,26.59
2018-08-22T15:15:36.698Z,26.35
2018-08-22T15:18:00.606Z,26.75
2018-08-22T15:20:24.550Z,26.00
2018-08-22T15:22:48.442Z,26.14
2018-08-22T15:25:12.308Z,26.27
2018-08-22T15:27:36.262Z,26.76
2018-08-22T15:30:00.374Z,26.78
2018-08-22T15:32:25.826Z,25.64
2018-08-22T15:34:54.022Z,26.92
2018-08-22T15:37:17.937Z,26.37
2018-08-22T15:39:41.860Z,26.44
2018-08-22T15:42:05.801Z,26.85
2018-08-22T15:44:29.820Z,26.45
2018-08-22T15:46:53.731Z,26.34
2018-08-22T15:49:17.662Z,26.87
2018-08-22T15:51:41.601Z,26.00
2018-08-22T15:54:12.534Z,26.40
2018-08-22T15:56:38.121Z,26.91
2018-08-22T15:59:02.256Z,26.08
2018-08-22T16:01:26.169Z,26.74
2018-08-22T16:03:54.370Z,25.40
2018-08-22T16:06:18.270Z,26.94
2018-08-22T16:08:42.447Z,26.91
2018-08-22T16:11:07.639Z,27.07
2018-08-22T16:13:32.343Z,26.10
2018-08-22T16:15:57.478Z,26.22
2018-08-22T16:18:21.573Z,26.69
2018-08-22T16:20:52.969Z,26.24
2018-08-22T16:23:16.976Z,25.83
2018-08-22T16:25:46.416Z,26.47
2018-08-22T16:28:10.912Z,27.02
2018-08-22T16:30:34.769Z,26.00
2018-08-22T16:32:58.668Z,26.47
2018-08-22T16:35:22.553Z,26.78
2018-08-22T16:38:01.488Z,27.10
2018-08-22T16:40:25.364Z,26.13
2018-08-22T16:42:49.449Z,26.70
2018-08-22T16:45:13.357Z,27.65
2018-08-22T16:47:37.600Z,27.23
2018-08-22T16:50:01.481Z,27.22
2018-08-22T16:52:25.391Z,26.81
2018-08-22T16:54:53.766Z,27.06
2018-08-22T16:57:17.695Z,27.04
2018-08-22T16:59:41.756Z,27.11
2018-08-22T17:02:05.830Z,27.09
2018-08-22T17:04:29.757Z,27.56
2018-08-22T17:06:53.633Z,27.07
2018-08-22T17:09:17.555Z,26.82
2018-08-22T17:11:41.770Z,27.00
2018-08-22T17:14:05.726Z,28.11
2018-08-22T17:16:29.706Z,26.70
2018-08-22T17:18:53.656Z,27.64
2018-08-22T17:21:17.674Z,28.05
2018-08-22T17:23:41.919Z,26.94
2018-08-22T17:26:06.040Z,28.21
2018-08-22T17:28:34.856Z,28.14
2018-08-22T17:30:58.745Z,27.96
2018-08-22T17:33:25.783Z,28.68
2018-08-22T17:35:50.299Z,27.41
2018-08-22T17:38:14.228Z,28.55
2018-08-22T17:40:38.929Z,28.58
2018-08-22T17:43:02.833Z,29.21
2018-08-22T17:45:34.096Z,28.87
2018-08-22T17:47:57.992Z,29.49
2018-08-22T17:50:21.947Z,28.43
2018-08-22T17:52:45.878Z,29.17
2018-08-22T17:55:09.793Z,29.57
2018-08-22T17:57:33.707Z,28.69
2018-08-22T17:59:57.914Z,29.59
2018-08-22T18:02:21.881Z,29.89
2018-08-22T18:05:02.783Z,29.32
2018-08-22T18:07:26.726Z,30.08
2018-08-22T18:09:51.044Z,29.51
2018-08-22T18:12:14.980Z,29.50
2018-08-22T18:14:39.147Z,30.33
2018-08-22T18:17:06.027Z,29.87
2018-08-22T18:19:30.022Z,30.14
2018-08-22T18:21:53.955Z,31.05
2018-08-22T18:24:17.816Z,31.24
2018-08-22T18:26:41.748Z,31.16
2018-08-22T18:29:05.675Z,31.30
2018-08-22T18:31:29.988Z,30.65
2018-08-22T18:33:57.899Z,31.57
2018-08-22T18:36:22.940Z,31.59
2018-08-22T18:39:00.007Z,30.66
2018-08-22T18:41:23.925Z,30.70
2018-08-22T18:43:47.827Z,31.12
2018-08-22T18:46:11.714Z,31.33
2018-08-22T18:48:36.247Z,30.71
2018-08-22T18:51:00.307Z,31.76
2018-08-22T18:53:24.296Z,30.93
2018-08-22T18:55:48.806Z,31.02
2018-08-22T18:58:13.528Z,31.33
2018-08-22T19:00:38.424Z,32.56
2018-08-22T19:03:02.477Z,31.91
2018-08-22T19:05:28.294Z,32.60
2018-08-22T19:08:08.234Z,32.37
2018-08-22T19:10:33.359Z,33.20
2018-08-22T19:13:04.907Z,32.72
2018-08-22T19:15:28.824Z,32.75
2018-08-22T19:17:52.796Z,32.36
2018-08-22T19:20:16.655Z,32.16
2018-08-22T19:22:40.618Z,32.56
2018-08-22T19:25:06.250Z,32.29
2018-08-22T19:27:30.182Z,32.88
2018-08-22T19:29:54.118Z,32.91
2018-08-22T19:32:18.023Z,32.03
2018-08-22T19:34:43.634Z,32.02
2018-08-22T19:37:07.490Z,32.73
2018-08-22T19:39:31.548Z,32.61
2018-08-22T19:41:55.489Z,32.34
2018-08-22T19:44:23.476Z,32.09
2018-08-22T19:46:47.437Z,32.76
2018-08-22T19:49:11.353Z,32.98
2018-08-22T19:51:35.330Z,32.09
2018-08-22T19:54:01.778Z,32.35
2018-08-22T19:56:26.193Z,33.13
2018-08-22T19:58:50.081Z,32.47
2018-08-22T20:01:15.022Z,32.68
2018-08-22T20:03:38.987Z,33.55
2018-08-22T20:06:02.920Z,32.86
2018-08-22T20:08:30.972Z,32.74
2018-08-22T20:10:55.343Z,32.83
2018-08-22T20:13:19.301Z,33.82
2018-08-22T20:15:43.255Z,33.13
2018-08-22T20:18:07.171Z,33.15
2018-08-22T20:20:31.080Z,33.65
2018-08-22T20:22:56.042Z,34.07
2018-08-22T20:25:19.966Z,33.45
2018-08-22T20:27:43.906Z,34.23
2018-08-22T20:30:17.489Z,34.09
2018-08-22T20:32:56.493Z,34.09
2018-08-22T20:35:25.759Z,34.02
2018-08-22T20:37:49.724Z,33.77
2018-08-22T20:40:13.653Z,34.08
2018-08-22T20:42:37.621Z,34.44
2018-08-22T20:45:01.544Z,33.95
2018-08-22T20:47:25.448Z,34.60
2018-08-22T20:49:49.895Z,33.97
2018-08-22T20:52:13.822Z,34.39
2018-08-22T20:54:37.720Z,34.68
2018-08-22T20:57:02.199Z,34.66
2018-08-22T20:59:26.088Z,34.88
2018-08-22T21:01:54.954Z,35.44
2018-08-22T21:04:18.889Z,34.88
2018-08-22T21:06:42.772Z,35.02
2018-08-22T21:09:07.529Z,35.02
2018-08-22T21:11:31.409Z,34.88
2018-08-22T21:13:55.419Z,35.08
2018-08-22T21:16:19.408Z,35.46
2018-08-22T21:18:43.285Z,35.69
2018-08-22T21:21:11.362Z,36.01
2018-08-22T21:23:35.263Z,35.73
2018-08-22T21:25:59.110Z,35.62
2018-08-22T21:28:24.563Z,36.12
2018-08-22T21:30:53.720Z,36.01
2018-08-22T21:33:17.607Z,36.15
2018-08-22T21:35:41.526Z,36.21
2018-08-22T21:38:19.937Z,36.27
2018-08-22T21:40:43.842Z,36.45
2018-08-22T21:43:07.708Z,36.59
2018-08-22T21:45:31.645Z,36.43
2018-08-22T21:48:11.879Z,36.63
2018-08-22T21:50:35.795Z,36.44
2018-08-22T21:53:02.606Z,36.61
2018-08-22T21:55:30.673Z,36.45
2018-08-22T21:57:54.627Z,36.55
2018-08-22T22:00:18.494Z,36.76
2018-08-22T22:02:44.363Z,36.80
2018-08-22T22:05:08.464Z,36.69
2018-08-22T22:07:32.337Z,36.64
2018-08-22T22:10:00.369Z,37.07
2018-08-22T22:12:29.592Z,36.62
2018-08-22T22:14:53.509Z,37.00
2018-08-22T22:17:17.495Z,36.84
2018-08-22T22:19:41.419Z,37.17
2018-08-22T22:22:05.533Z,37.09
2018-08-22T22:24:29.485Z,36.81
2018-08-22T22:26:53.399Z,37.03
2018-08-22T22:29:17.256Z,37.20
2018-08-22T22:31:41.172Z,37.14
2018-08-22T22:34:05.068Z,37.38
2018-08-22T22:36:29.036Z,37.06
2018-08-22T22:38:52.899Z,37.70
2018-08-22T22:41:16.797Z,36.76
2018-08-22T22:43:40.647Z,37.32
2018-08-22T22:46:04.538Z,37.04
2018-08-22T22:48:38.673Z,37.23
2018-08-22T22:51:02.568Z,37.52
2018-08-22T22:53:26.440Z,36.97
2018-08-22T22:55:50.429Z,37.32
2018-08-22T22:58:14.339Z,37.60
2018-08-22T23:00:38.416Z,37.67
2018-08-22T23:03:06.203Z,37.24
2018-08-22T23:05:30.094Z,37.22
2018-08-22T23:07:53.957Z,37.27
2018-08-22T23:10:17.807Z,37.55
2018-08-22T23:12:43.630Z,37.60
2018-08-22T23:15:10.959Z,37.43
2018-08-22T23:17:34.932Z,37.25
2018-08-22T23:20:13.264Z,37.36
2018-08-22T23:25:07.182Z,38.12
2018-08-22T23:27:31.055Z,37.75
2018-08-22T23:29:54.988Z,37.76
2018-08-22T23:32:18.920Z,37.86
2018-08-22T23:34:42.850Z,38.54
2018-08-22T23:37:06.754Z,38.64
2018-08-22T23:39:30.648Z,37.96
2018-08-22T23:41:54.540Z,38.22
2018-08-22T23:44:18.425Z,38.43
2018-08-22T23:46:42.362Z,38.46
2018-08-22T23:49:06.243Z,38.58
2018-08-22T23:51:30.116Z,39.14
2018-08-22T23:53:58.085Z,38.90
2018-08-22T23:56:23.937Z,38.41
2018-08-22T23:58:48.655Z,38.81
